createdAt,value
2018-02-22T00:10:11.945Z,0
2018-02-22T00:20:26.241Z,0
2018-02-22T00:30:40.830Z,0
2018-02-22T00:40:56.460Z,0
2018-02-22T00:51:11.189Z,0
2018-02-22T01:01:25.949Z,0
2018-02-22T01:11:40.424Z,0
2018-02-22T01:21:54.204Z,0
2018-02-22T01:32:09.605Z,0
2018-02-22T01:42:23.860Z,0
2018-02-22T01:52:38.663Z,0
2018-02-22T02:02:53.830Z,0
2018-02-22T02:13:08.377Z,0
2018-02-22T02:23:22.071Z,0
2018-02-22T02:33:36.907Z,0
2018-02-22T02:43:51.600Z,0
2018-02-22T02:54:05.559Z,0
2018-02-22T03:04:19.558Z,0
2018-02-22T03:14:34.053Z,0
2018-02-22T03:24:48.624Z,0
2018-02-22T03:35:02.996Z,0
2018-02-22T03:45:18.297Z,0
2018-02-22T03:55:32.448Z,0
2018-02-22T04:05:48.088Z,0
2018-02-22T04:16:02.755Z,0
2018-02-22T04:26:17.504Z,0
2018-02-22T04:36:31.408Z,0
2018-02-22T04:46:45.865Z,0
2018-02-22T04:57:00.416Z,0
2018-02-22T05:07:14.069Z,0
2018-02-22T05:17:29.140Z,0
2018-02-22T05:27:44.455Z,0
2018-02-22T05:37:58.457Z,0
2018-02-22T05:48:12.335Z,0
2018-02-22T05:58:26.337Z,4
2018-02-22T06:08:41.223Z,20
2018-02-22T06:18:55.540Z,108
2018-02-22T06:29:09.898Z,364
2018-02-22T06:39:23.953Z,836
2018-02-22T06:49:38.822Z,1536
2018-02-22T06:59:52.559Z,2324
2018-02-22T07:10:06.450Z,3140
2018-02-22T07:20:21.098Z,4504
2018-02-22T07:30:36.413Z,4784
2018-02-22T07:40:51.294Z,5728
2018-02-22T07:51:04.942Z,7072
2018-02-22T08:01:19.993Z,7288
2018-02-22T08:11:34.748Z,8724
2018-02-22T08:21:49.170Z,10368
2018-02-22T08:32:02.976Z,14296
2018-02-22T08:42:16.970Z,12840
2018-02-22T08:52:32.348Z,16928
2018-02-22T09:02:47.058Z,20544
2018-02-22T09:13:01.393Z,22656
2018-02-22T09:23:16.673Z,23776
2018-02-22T09:33:31.392Z,25376
2018-02-22T09:43:45.525Z,29248
2018-02-22T09:54:00.292Z,30112
2018-02-22T10:04:14.622Z,32480
2018-02-22T10:14:29.429Z,35936
2018-02-22T10:24:44.270Z,36576
2018-02-22T10:34:59.387Z,43104
2018-02-22T10:45:13.727Z,35584
2018-02-22T10:55:29.240Z,36000
2018-02-22T11:05:44.772Z,36864
2018-02-22T11:15:59.144Z,36736
2018-02-22T11:26:13.276Z,27808
2018-02-22T11:36:27.512Z,28704
2018-02-22T11:46:43.191Z,35488
2018-02-22T11:56:57.670Z,32256
2018-02-22T12:07:11.843Z,42528
2018-02-22T12:17:26.216Z,44384
2018-02-22T12:27:40.227Z,45952
2018-02-22T12:37:54.194Z,41824
2018-02-22T12:48:09.672Z,37408
2018-02-22T12:58:25.351Z,33920
2018-02-22T13:08:41.175Z,32960
2018-02-22T13:18:54.856Z,34112
2018-02-22T13:29:09.342Z,34464
2018-02-22T13:39:24.523Z,35136
2018-02-22T13:49:38.464Z,34208
